createdAt,value
2019-04-05T05:00:25.381Z,99651.95
2019-04-05T05:02:59.698Z,99653.32
2019-04-05T05:05:33.808Z,99656.90
2019-04-05T05:08:15.995Z,99657.11
2019-04-05T05:10:50.742Z,99664.12
2019-04-05T05:13:43.783Z,99664.85
2019-04-05T05:16:17.951Z,99672.00
2019-04-05T05:18:52.115Z,99667.22
2019-04-05T05:21:26.494Z,99668.38
2019-04-05T05:24:00.649Z,99673.23
2019-04-05T05:26:36.319Z,99676.86
2019-04-05T05:29:10.768Z,99671.95
2019-04-05T05:31:44.649Z,99667.78
2019-04-05T05:34:19.174Z,99670.57
2019-04-05T05:36:52.955Z,99677.41
2019-04-05T05:39:27.104Z,99678.70
2019-04-05T05:42:00.786Z,99681.67
2019-04-05T05:44:34.523Z,99690.28
2019-04-05T05:47:08.145Z,99692.09
2019-04-05T05:49:42.120Z,99693.24
2019-04-05T05:52:17.026Z,99698.02
2019-04-05T05:54:50.969Z,99697.63
2019-04-05T05:57:25.010Z,99691.83
2019-04-05T06:00:00.481Z,99695.57
2019-04-05T06:02:36.518Z,99701.81
2019-04-05T06:05:10.131Z,99694.41
2019-04-05T06:07:43.839Z,99690.67
2019-04-05T06:10:17.603Z,99694.89
2019-04-05T06:12:51.277Z,99697.55
2019-04-05T06:15:24.859Z,99697.20
2019-04-05T06:18:04.522Z,99696.98
2019-04-05T06:20:33.840Z,99697.77
2019-04-05T06:23:07.482Z,99700.04
2019-04-05T06:25:41.103Z,99696.91
2019-04-05T06:28:14.723Z,99696.78
2019-04-05T06:30:48.665Z,99694.33
2019-04-05T06:33:31.352Z,99699.44
2019-04-05T06:35:57.609Z,99696.41
2019-04-05T06:38:31.181Z,99699.27
2019-04-05T06:41:04.742Z,99700.84
2019-04-05T06:43:38.736Z,99700.89
2019-04-05T06:46:12.267Z,99711.18
2019-04-05T06:48:45.945Z,99704.64
2019-04-05T06:51:19.934Z,99702.59
2019-04-05T06:53:53.527Z,99700.80
2019-04-05T06:56:27.091Z,99696.64
2019-04-05T06:59:00.712Z,99696.80
2019-04-05T07:01:34.415Z,99700.46
2019-04-05T07:04:08.458Z,99706.78
2019-04-05T07:06:42.476Z,99710.81
2019-04-05T07:09:16.078Z,99715.52
2019-04-05T07:11:49.642Z,99715.16
2019-04-05T07:14:23.248Z,99716.84
2019-04-05T07:16:56.811Z,99716.52
2019-04-05T07:19:30.457Z,99723.77
2019-04-05T07:22:03.984Z,99723.44
2019-04-05T07:24:37.562Z,99730.14
2019-04-05T07:27:11.130Z,99733.70
2019-04-05T07:29:44.739Z,99729.83
2019-04-05T07:32:18.684Z,99728.09
2019-04-05T07:34:52.282Z,99733.87
2019-04-05T07:37:25.848Z,99732.59
2019-04-05T07:40:00.107Z,99726.52
2019-04-05T07:42:34.070Z,99728.06
2019-04-05T07:45:08.667Z,99723.89
2019-04-05T07:47:42.274Z,99726.77
2019-04-05T07:50:16.478Z,99730.15
2019-04-05T07:52:50.021Z,99738.05
2019-04-05T07:55:23.609Z,99732.27
2019-04-05T14:25:26.094Z,99800.20
2019-04-05T14:28:00.180Z,99800.83
2019-04-05T14:30:34.140Z,99807.79
2019-04-05T20:54:34.353Z,99917.88
2019-04-05T20:57:08.743Z,99918.70
2019-04-05T20:59:42.936Z,99922.58
2019-04-05T21:02:16.939Z,99918.34
2019-04-05T21:04:50.471Z,99930.55
2019-04-05T21:07:24.439Z,99924.66
2019-04-05T21:09:58.027Z,99929.72
2019-04-05T21:12:32.022Z,99925.75
2019-04-05T21:15:06.107Z,99936.70
2019-04-05T21:17:40.166Z,99930.29
2019-04-05T21:20:14.228Z,99925.25
2019-04-05T21:22:47.866Z,99928.93
2019-04-05T21:25:21.823Z,99931.58
2019-04-05T21:27:55.442Z,99933.50
2019-04-05T21:30:29.091Z,99937.97
2019-04-05T21:33:02.945Z,99942.27
2019-04-05T21:35:36.583Z,99939.36
2019-04-05T21:38:10.310Z,99943.69
2019-04-05T21:40:43.880Z,99955.55
2019-04-05T21:43:17.831Z,99947.44
2019-04-05T21:45:52.279Z,99947.93
2019-04-05T21:48:25.917Z,99949.22
2019-04-05T21:50:59.533Z,99950.51
2019-04-05T21:53:33.177Z,99947.31
2019-04-05T21:56:06.906Z,99945.89
2019-04-05T21:58:40.632Z,99945.56
2019-04-05T22:01:14.267Z,99945.16
2019-04-05T22:03:47.996Z,99948.77
2019-04-05T22:06:21.676Z,99939.44
2019-04-05T22:08:55.726Z,99931.42
2019-04-05T22:11:29.450Z,99933.23
2019-04-05T22:14:03.260Z,99933.45
2019-04-05T22:16:36.957Z,99920.13
2019-04-05T22:19:10.664Z,99926.13
2019-04-05T22:21:44.382Z,99922.95
2019-04-05T22:24:18.452Z,99918.66
2019-04-05T22:26:52.380Z,99924.37
2019-04-05T22:29:26.392Z,99916.72
2019-04-05T22:32:00.095Z,99916.04
2019-04-05T22:34:33.833Z,99920.10
2019-04-05T22:37:07.536Z,99919.70
2019-04-05T22:39:41.242Z,99919.84
2019-04-05T22:42:14.950Z,99932.13
2019-04-05T22:44:48.674Z,99932.69
2019-04-05T22:47:22.934Z,99932.42
2019-04-05T22:49:57.012Z,99941.03
2019-04-05T22:52:30.658Z,99942.19
2019-04-05T22:55:10.995Z,99943.27
2019-04-05T22:57:40.135Z,99948.90
2019-04-05T23:00:14.025Z,99947.63
2019-04-05T23:02:47.698Z,99951.89
2019-04-05T23:05:21.459Z,99943.81
2019-04-05T23:07:55.299Z,99952.48
2019-04-05T23:10:29.253Z,99960.75
2019-04-05T23:13:02.917Z,99957.02
2019-04-05T23:15:36.689Z,99958.58
2019-04-05T23:18:10.369Z,99954.19
2019-04-05T23:20:44.069Z,99957.09
2019-04-05T23:23:18.191Z,99958.72
2019-04-05T23:25:51.885Z,99955.55
2019-04-05T23:28:25.558Z,99956.34
2019-04-05T23:30:59.312Z,99951.35
2019-04-05T23:33:32.928Z,99948.84
2019-04-05T23:36:06.652Z,99949.45
2019-04-05T23:38:40.289Z,99952.30
2019-04-05T23:41:13.961Z,99957.01
2019-04-05T23:43:48.519Z,99955.39
2019-04-05T23:46:22.240Z,99956.46
2019-04-05T23:48:56.244Z,99965.89
2019-04-05T23:51:29.918Z,99967.91
2019-04-05T23:54:03.648Z,99974.89
2019-04-05T23:56:37.349Z,99976.57
2019-04-05T23:59:11.033Z,99982.62
